createdAt,value
2023-04-29T00:00:00.671Z,8.48
2023-04-29T00:02:32.118Z,8.33
2023-04-29T00:05:04.888Z,8.55
2023-04-29T00:07:36.519Z,8.55
2023-04-29T00:10:07.712Z,8.50
2023-04-29T00:12:38.208Z,8.80
2023-04-29T00:15:10.706Z,8.60
2023-04-29T00:17:41.311Z,8.35
2023-04-29T00:20:12.924Z,9.93
2023-04-29T00:22:43.447Z,8.98
2023-04-29T00:25:14.452Z,9.17
2023-04-29T00:27:44.889Z,8.60
2023-04-29T00:30:15.664Z,8.85
2023-04-29T00:32:46.886Z,9.10
2023-04-29T00:35:17.456Z,8.73
2023-04-29T00:37:48.483Z,9.33
2023-04-29T00:40:19.293Z,10.27
2023-04-29T00:42:50.901Z,11.00
2023-04-29T00:45:21.400Z,9.10
2023-04-29T00:47:52.084Z,8.95
2023-04-29T00:50:23.335Z,9.08
2023-04-29T00:52:53.932Z,9.35
2023-04-29T00:55:26.857Z,8.53
2023-04-29T00:57:57.908Z,9.07
2023-04-29T01:00:29.724Z,8.90
2023-04-29T01:03:00.631Z,9.45
2023-04-29T01:05:31.151Z,9.53
2023-04-29T01:08:27.358Z,9.35
2023-04-29T01:11:04.614Z,9.73
2023-04-29T01:13:38.143Z,10.28
2023-04-29T01:16:11.825Z,10.40
2023-04-29T01:18:58.395Z,11.43
2023-04-29T01:21:34.055Z,11.63
2023-04-29T01:24:04.810Z,14.03
2023-04-29T01:26:35.992Z,11.55
2023-04-29T01:29:26.264Z,11.50
2023-04-29T01:32:14.003Z,12.13
2023-04-29T01:35:12.502Z,11.75
2023-04-29T01:37:46.090Z,11.48
2023-04-29T01:40:24.522Z,12.25
2023-04-29T01:43:02.584Z,13.03
2023-04-29T01:45:37.415Z,12.75
2023-04-29T01:48:08.851Z,12.90
2023-04-29T01:50:40.423Z,13.93
2023-04-29T01:53:10.874Z,12.78
2023-04-29T01:55:46.115Z,13.70
2023-04-29T01:58:16.616Z,15.18
2023-04-29T02:00:48.105Z,13.77
2023-04-29T02:03:20.737Z,16.35
2023-04-29T02:05:52.174Z,14.03
2023-04-29T02:08:22.612Z,15.10
2023-04-29T02:11:00.525Z,14.23
2023-04-29T02:13:31.853Z,14.30
2023-04-29T02:16:16.154Z,14.95
2023-04-29T02:18:46.953Z,14.43
2023-04-29T02:21:17.583Z,14.83
2023-04-29T02:23:48.057Z,14.05
2023-04-29T02:26:18.585Z,17.70
2023-04-29T02:28:49.069Z,15.08
2023-04-29T02:31:19.690Z,16.23
2023-04-29T02:33:50.761Z,17.35
2023-04-29T02:36:21.240Z,15.98
2023-04-29T02:38:53.385Z,16.33
2023-04-29T02:41:26.541Z,16.35
2023-04-29T02:43:57.175Z,16.27
2023-04-29T02:46:27.706Z,17.17
2023-04-29T02:48:58.293Z,16.75
2023-04-29T02:51:31.254Z,17.40
2023-04-29T02:54:01.833Z,17.92
2023-04-29T02:56:32.528Z,19.45
2023-04-29T02:59:03.113Z,19.10
2023-04-29T03:01:33.655Z,19.32
2023-04-29T03:04:04.896Z,19.85
2023-04-29T03:06:35.674Z,20.15
2023-04-29T03:09:08.425Z,19.60
2023-04-29T03:11:45.805Z,19.82
2023-04-29T03:14:19.477Z,19.10
2023-04-29T03:16:50.085Z,19.27
2023-04-29T03:19:20.645Z,18.90
2023-04-29T03:21:53.401Z,20.27
2023-04-29T03:24:23.237Z,19.60
2023-04-29T03:26:53.730Z,19.20
2023-04-29T03:29:26.211Z,20.43
2023-04-29T03:31:56.999Z,20.30
2023-04-29T03:34:27.530Z,20.62
2023-04-29T03:36:58.052Z,20.50
2023-04-29T03:39:30.528Z,21.27
2023-04-29T03:42:01.484Z,21.02
2023-04-29T03:44:31.959Z,20.90
2023-04-29T03:47:02.443Z,20.97
2023-04-29T03:49:33.236Z,21.65
2023-04-29T03:52:05.050Z,22.27
2023-04-29T03:54:35.674Z,22.22
2023-04-29T03:57:06.417Z,22.40
2023-04-29T03:59:37.141Z,22.05
2023-04-29T04:02:08.582Z,22.25
2023-04-29T04:04:40.689Z,22.42
2023-04-29T04:07:11.714Z,23.45
2023-04-29T04:09:43.410Z,23.25
2023-04-29T04:12:15.056Z,23.57
2023-04-29T04:14:45.983Z,23.60
2023-04-29T04:17:18.323Z,23.95
2023-04-29T04:19:48.940Z,24.55
2023-04-29T04:22:19.578Z,24.02
2023-04-29T04:24:50.237Z,22.95
2023-04-29T04:27:22.498Z,23.12
2023-04-29T04:29:56.802Z,23.60
2023-04-29T04:32:28.358Z,23.75
2023-04-29T04:34:59.379Z,23.85
2023-04-29T04:37:29.931Z,24.10
2023-04-29T04:40:00.394Z,23.95
2023-04-29T04:42:31.060Z,24.00
2023-04-29T04:45:01.960Z,24.40
2023-04-29T04:47:34.694Z,24.37
2023-04-29T04:50:08.321Z,23.95
2023-04-29T04:52:38.804Z,25.15
2023-04-29T04:55:10.363Z,24.67
2023-04-29T04:57:41.030Z,24.85
2023-04-29T05:00:12.917Z,26.12
2023-04-29T05:02:44.678Z,25.97
2023-04-29T05:05:15.280Z,27.25
2023-04-29T05:07:45.808Z,26.37
2023-04-29T05:10:16.493Z,27.22
2023-04-29T05:12:47.041Z,26.85
2023-04-29T05:15:19.069Z,26.62
2023-04-29T05:17:49.628Z,26.70
2023-04-29T05:20:21.984Z,26.50
2023-04-29T05:22:52.532Z,24.92
2023-04-29T05:25:29.734Z,25.77
2023-04-29T05:27:56.602Z,26.00
2023-04-29T05:30:32.367Z,26.23
2023-04-29T05:33:08.433Z,24.87
2023-04-29T05:35:40.261Z,23.90
2023-04-29T05:38:10.892Z,23.92
2023-04-29T05:40:41.458Z,24.45
2023-04-29T05:43:12.465Z,23.80
2023-04-29T05:45:42.974Z,24.85
2023-04-29T05:48:13.592Z,25.02
2023-04-29T05:50:45.973Z,23.92
2023-04-29T05:53:18.002Z,23.60
2023-04-29T05:55:51.104Z,24.27
2023-04-29T05:58:22.120Z,23.47
2023-04-29T06:00:52.715Z,24.95
2023-04-29T06:03:23.428Z,24.47
2023-04-29T06:05:56.224Z,25.62
2023-04-29T06:08:27.800Z,24.70
2023-04-29T06:11:00.181Z,25.23
2023-04-29T06:13:30.972Z,25.77
2023-04-29T06:16:01.761Z,25.97
2023-04-29T06:18:33.783Z,26.15
2023-04-29T06:21:04.302Z,26.20
2023-04-29T06:23:34.882Z,24.57
2023-04-29T06:26:05.408Z,25.08
2023-04-29T06:28:37.676Z,24.92
2023-04-29T06:31:13.042Z,24.18
2023-04-29T06:33:43.779Z,22.50
2023-04-29T06:36:14.446Z,22.05
2023-04-29T06:38:45.501Z,22.30
2023-04-29T06:41:17.634Z,21.75
2023-04-29T06:43:49.096Z,22.30
2023-04-29T06:46:20.050Z,21.50
2023-04-29T06:48:51.244Z,20.60
2023-04-29T06:51:22.118Z,21.02
2023-04-29T06:53:53.823Z,20.70
2023-04-29T06:56:24.766Z,20.45
2023-04-29T06:58:55.474Z,21.12
2023-04-29T07:01:26.902Z,20.90
2023-04-29T07:03:58.050Z,20.60
2023-04-29T07:06:29.520Z,21.02
2023-04-29T07:09:00.138Z,21.60
2023-04-29T07:11:30.742Z,21.50
2023-04-29T07:14:02.797Z,22.05
2023-04-29T07:16:33.468Z,21.85
2023-04-29T07:19:04.799Z,22.27
2023-04-29T07:21:35.872Z,22.42
2023-04-29T07:24:07.030Z,23.27
2023-04-29T07:26:38.062Z,24.00
2023-04-29T07:29:10.000Z,25.17
2023-04-29T07:31:42.319Z,24.98
2023-04-29T07:34:14.903Z,25.20
2023-04-29T07:36:45.295Z,24.40
2023-04-29T07:39:16.527Z,26.10
2023-04-29T07:41:47.118Z,25.90
2023-04-29T07:44:17.692Z,25.45
2023-04-29T07:46:48.360Z,23.87
2023-04-29T07:49:21.918Z,25.72
2023-04-29T07:51:53.843Z,24.67
2023-04-29T07:54:24.675Z,24.30
2023-04-29T07:57:00.287Z,21.77
2023-04-29T07:59:33.534Z,20.15
2023-04-29T08:02:05.050Z,18.95
2023-04-29T08:04:38.283Z,17.25
2023-04-29T08:07:10.553Z,16.00
2023-04-29T08:09:41.692Z,17.77
2023-04-29T08:12:13.842Z,16.27
2023-04-29T08:14:44.304Z,15.83
2023-04-29T08:17:17.853Z,16.32
2023-04-29T08:19:49.985Z,15.73
2023-04-29T08:22:21.697Z,14.77
2023-04-29T08:24:59.366Z,15.43
2023-04-29T08:27:29.935Z,16.35
2023-04-29T08:30:04.812Z,15.80
2023-04-29T08:32:37.135Z,16.70
2023-04-29T08:35:12.313Z,16.45
2023-04-29T08:37:46.288Z,17.52
2023-04-29T08:40:19.405Z,17.87
2023-04-29T08:42:50.615Z,17.62
2023-04-29T08:45:24.148Z,17.92
2023-04-29T08:47:57.246Z,17.32
2023-04-29T08:50:30.729Z,17.32
2023-04-29T08:53:02.770Z,16.23
2023-04-29T08:55:48.229Z,16.37
2023-04-29T08:58:18.866Z,16.07
2023-04-29T09:00:50.444Z,16.87
2023-04-29T09:03:30.428Z,16.77
2023-04-29T09:06:02.230Z,17.33
2023-04-29T09:08:37.582Z,16.80
2023-04-29T09:11:15.637Z,19.27
2023-04-29T09:13:48.104Z,18.00
2023-04-29T09:16:22.148Z,18.12
2023-04-29T09:18:54.724Z,19.05
2023-04-29T09:21:29.325Z,18.32
2023-04-29T09:24:02.029Z,19.48
2023-04-29T09:26:38.661Z,20.43
2023-04-29T09:29:19.057Z,21.17
2023-04-29T09:31:51.162Z,21.05
2023-04-29T09:34:35.708Z,21.65
2023-04-29T09:37:28.348Z,22.70
2023-04-29T09:39:58.994Z,21.05
2023-04-29T09:42:30.038Z,23.87
2023-04-29T09:45:03.394Z,23.25
2023-04-29T09:47:34.350Z,24.35
2023-04-29T09:50:17.695Z,25.95
2023-04-29T09:52:49.169Z,27.93
2023-04-29T09:55:19.851Z,31.52
2023-04-29T09:57:50.514Z,31.40
2023-04-29T10:00:21.182Z,33.25
2023-04-29T10:02:54.675Z,33.48
2023-04-29T10:05:29.515Z,33.15
2023-04-29T10:08:00.579Z,34.00
2023-04-29T10:10:31.523Z,33.10
2023-04-29T10:13:02.547Z,33.42
2023-04-29T10:15:45.158Z,33.45
2023-04-29T10:18:24.354Z,33.53
2023-04-29T10:21:00.495Z,34.15
2023-04-29T10:23:35.114Z,32.35
2023-04-29T10:26:07.905Z,33.58
2023-04-29T10:28:40.361Z,34.48
2023-04-29T10:31:11.766Z,33.25
2023-04-29T10:33:46.027Z,34.18
2023-04-29T10:36:18.357Z,33.02
2023-04-29T10:38:53.307Z,31.97
2023-04-29T10:41:34.650Z,30.27
2023-04-29T10:44:05.724Z,30.00
2023-04-29T10:46:39.927Z,27.95
2023-04-29T10:49:11.789Z,27.27
2023-04-29T10:51:46.516Z,27.65
2023-04-29T10:54:23.501Z,30.05
2023-04-29T10:56:56.395Z,27.53
2023-04-29T10:59:37.650Z,26.33
2023-04-29T11:02:12.621Z,25.68
2023-04-29T11:05:05.407Z,25.43
2023-04-29T11:07:38.209Z,24.18
2023-04-29T11:10:09.312Z,24.87
2023-04-29T11:12:40.490Z,24.37
2023-04-29T11:15:11.717Z,23.55
2023-04-29T11:17:45.407Z,24.12
2023-04-29T11:20:18.783Z,23.25
2023-04-29T11:22:53.461Z,22.80
2023-04-29T11:25:27.542Z,20.72
2023-04-29T11:27:59.646Z,20.60
2023-04-29T11:30:32.412Z,20.35
2023-04-29T11:33:04.002Z,20.40
2023-04-29T11:35:36.420Z,21.33
2023-04-29T11:38:09.466Z,19.98
2023-04-29T11:40:45.908Z,18.85
2023-04-29T11:43:21.620Z,19.35
2023-04-29T11:45:56.525Z,17.35
2023-04-29T11:48:30.686Z,17.17
2023-04-29T11:51:01.537Z,16.93
2023-04-29T11:53:32.231Z,16.82
2023-04-29T11:56:03.446Z,16.87
2023-04-29T11:58:34.319Z,17.17
2023-04-29T12:01:06.300Z,17.98
2023-04-29T12:03:41.939Z,17.42
2023-04-29T12:06:16.112Z,17.62
2023-04-29T12:08:49.268Z,17.57
2023-04-29T12:11:20.931Z,17.45
2023-04-29T12:13:52.358Z,18.15
2023-04-29T12:16:24.258Z,19.10
2023-04-29T12:18:55.623Z,18.23
2023-04-29T12:21:28.760Z,17.50
2023-04-29T12:24:02.379Z,17.92
2023-04-29T12:26:34.015Z,17.48
2023-04-29T12:29:05.091Z,17.77
2023-04-29T12:31:37.162Z,16.45
2023-04-29T12:34:10.069Z,15.65
2023-04-29T12:36:46.525Z,15.95
2023-04-29T12:39:17.779Z,14.98
2023-04-29T12:41:48.288Z,14.30
2023-04-29T12:44:20.727Z,13.10
2023-04-29T12:46:58.452Z,13.45
2023-04-29T12:49:30.382Z,11.65
2023-04-29T12:52:01.242Z,10.18
2023-04-29T12:54:33.010Z,10.70
2023-04-29T12:57:04.470Z,11.50
2023-04-29T12:59:38.334Z,10.80
2023-04-29T13:02:09.470Z,11.68
2023-04-29T13:04:43.850Z,10.23
2023-04-29T13:07:17.004Z,8.98
2023-04-29T13:09:51.330Z,8.43
2023-04-29T13:12:24.769Z,8.65
2023-04-29T13:14:57.958Z,6.40
2023-04-29T13:17:29.146Z,6.30
2023-04-29T13:20:01.330Z,5.72
2023-04-29T13:22:34.029Z,6.05
2023-04-29T13:25:07.396Z,6.40
2023-04-29T13:27:40.088Z,6.42
2023-04-29T13:30:11.846Z,6.83
2023-04-29T13:32:49.376Z,6.17
2023-04-29T13:35:21.137Z,6.95
2023-04-29T13:37:52.612Z,7.30
2023-04-29T13:40:27.705Z,7.75
2023-04-29T13:43:04.954Z,8.35
2023-04-29T13:45:32.244Z,7.90
2023-04-29T13:48:12.078Z,8.35
2023-04-29T13:51:19.032Z,8.28
2023-04-29T13:53:41.216Z,9.75
2023-04-29T14:03:26.490Z,9.78
2023-04-29T14:06:00.300Z,9.90
2023-04-29T14:08:31.964Z,9.08
2023-04-29T14:11:03.544Z,8.83
2023-04-29T14:13:35.772Z,9.38
2023-04-29T14:16:06.991Z,9.70
2023-04-29T14:18:38.086Z,9.35
2023-04-29T14:21:11.127Z,9.43
2023-04-29T14:23:42.461Z,9.18
2023-04-29T14:26:27.861Z,9.18
2023-04-29T14:28:50.148Z,9.13
2023-04-29T14:31:21.331Z,8.73
2023-04-29T14:33:52.325Z,9.33
2023-04-29T14:36:23.533Z,8.93
2023-04-29T14:38:54.383Z,9.08
2023-04-29T14:41:26.008Z,8.13
2023-04-29T14:43:57.698Z,7.85
2023-04-29T14:46:29.930Z,7.97
2023-04-29T14:49:02.242Z,7.78
2023-04-29T14:51:34.921Z,8.13
2023-04-29T14:54:05.951Z,7.47
2023-04-29T14:56:37.894Z,6.72
2023-04-29T14:59:08.899Z,6.37
2023-04-29T15:01:42.754Z,6.72
2023-04-29T15:04:14.274Z,6.60
2023-04-29T15:06:46.512Z,6.95
2023-04-29T15:09:17.530Z,6.72
2023-04-29T15:11:48.185Z,6.83
2023-04-29T15:14:18.792Z,6.53
2023-04-29T15:16:49.409Z,6.35
2023-04-29T15:19:21.851Z,6.58
2023-04-29T15:21:52.516Z,6.87
2023-04-29T15:24:23.372Z,7.22
2023-04-29T15:26:54.808Z,6.50
2023-04-29T15:29:28.203Z,7.50
2023-04-29T15:31:58.765Z,7.30
2023-04-29T15:34:29.338Z,6.40
2023-04-29T15:37:01.325Z,7.03
2023-04-29T15:39:31.798Z,7.50
2023-04-29T15:42:05.364Z,6.65
2023-04-29T15:44:36.107Z,7.60
2023-04-29T15:47:06.674Z,7.62
2023-04-29T15:49:40.211Z,7.87
2023-04-29T15:52:11.931Z,8.10
2023-04-29T15:54:48.445Z,7.58
2023-04-29T15:57:22.044Z,7.15
2023-04-29T15:59:54.235Z,8.75
2023-04-29T16:02:25.412Z,7.72
2023-04-29T16:04:56.114Z,7.55
2023-04-29T16:07:28.212Z,7.55
2023-04-29T16:09:59.583Z,7.62
2023-04-29T16:12:31.681Z,7.92
2023-04-29T16:15:02.722Z,7.58
2023-04-29T16:17:34.775Z,8.05
2023-04-29T16:20:06.227Z,7.55
2023-04-29T16:22:37.082Z,7.85
2023-04-29T16:25:09.588Z,7.90
2023-04-29T16:27:40.285Z,8.38
2023-04-29T16:30:12.487Z,8.98
2023-04-29T16:32:43.197Z,8.45
2023-04-29T16:35:13.935Z,9.18
2023-04-29T16:37:46.042Z,10.05
2023-04-29T16:40:16.571Z,9.25
2023-04-29T16:42:48.351Z,10.88
2023-04-29T16:45:23.166Z,8.55
2023-04-29T16:47:54.800Z,8.50
2023-04-29T16:50:26.935Z,7.58
2023-04-29T16:52:57.687Z,7.78
2023-04-29T16:55:30.847Z,5.83
2023-04-29T16:58:01.293Z,4.85
2023-04-29T17:00:32.591Z,4.17
2023-04-29T17:03:03.907Z,4.40
2023-04-29T17:05:34.975Z,5.10
2023-04-29T17:08:08.678Z,4.42
2023-04-29T17:10:39.348Z,4.03
2023-04-29T17:13:10.736Z,4.17
2023-04-29T17:15:42.330Z,3.85
2023-04-29T17:18:13.288Z,4.25
2023-04-29T17:20:43.872Z,4.20
2023-04-29T17:23:14.626Z,4.12
2023-04-29T17:25:45.441Z,3.85
2023-04-29T17:28:15.881Z,3.70
2023-04-29T17:30:47.378Z,3.60
2023-04-29T17:33:18.134Z,3.80
2023-04-29T17:35:48.858Z,3.65
2023-04-29T17:38:19.565Z,3.80
2023-04-29T17:40:50.644Z,3.80
2023-04-29T17:43:21.256Z,3.85
2023-04-29T17:45:53.955Z,4.22
2023-04-29T17:48:24.766Z,3.90
2023-04-29T17:50:55.519Z,3.70
2023-04-29T17:53:27.520Z,5.12
2023-04-29T17:56:00.194Z,3.70
2023-04-29T17:58:30.901Z,3.87
2023-04-29T18:01:02.972Z,3.95
2023-04-29T18:03:33.916Z,3.92
2023-04-29T18:06:04.710Z,3.50
2023-04-29T18:08:36.866Z,3.95
2023-04-29T18:11:09.052Z,3.55
2023-04-29T18:13:40.613Z,3.67
2023-04-29T18:16:11.629Z,3.50
2023-04-29T18:18:43.366Z,3.25
2023-04-29T18:21:13.944Z,3.83
2023-04-29T18:23:44.486Z,3.60
2023-04-29T18:26:17.008Z,3.75
2023-04-29T18:28:51.640Z,3.47
2023-04-29T18:31:24.045Z,3.35
2023-04-29T18:33:57.822Z,3.58
2023-04-29T18:36:29.350Z,3.50
2023-04-29T18:39:02.868Z,3.90
2023-04-29T18:41:33.642Z,3.72
2023-04-29T18:44:04.238Z,3.83
2023-04-29T18:46:35.149Z,3.83
2023-04-29T18:49:06.806Z,3.90
2023-04-29T18:51:37.502Z,4.10
2023-04-29T18:54:09.601Z,4.00
2023-04-29T18:56:41.068Z,4.17
2023-04-29T18:59:13.430Z,4.53
2023-04-29T19:01:44.554Z,4.60
2023-04-29T19:04:15.801Z,5.58
2023-04-29T19:06:48.156Z,4.92
2023-04-29T19:09:18.741Z,4.75
2023-04-29T19:11:49.386Z,4.87
2023-04-29T19:14:21.317Z,5.28
2023-04-29T19:16:52.359Z,5.67
2023-04-29T19:19:23.171Z,5.50
2023-04-29T19:21:55.253Z,5.20
2023-04-29T19:24:26.061Z,4.45
2023-04-29T19:26:56.630Z,5.90
2023-04-29T19:29:28.775Z,5.17
2023-04-29T19:31:59.694Z,5.00
2023-04-29T19:34:30.329Z,5.28
2023-04-29T19:37:02.839Z,5.25
2023-04-29T19:39:33.770Z,5.40
2023-04-29T19:42:04.465Z,5.62
2023-04-29T19:44:35.244Z,5.62
2023-04-29T19:47:06.111Z,5.60
2023-04-29T19:49:39.374Z,5.03
2023-04-29T19:52:11.482Z,5.03
2023-04-29T19:54:42.241Z,5.05
2023-04-29T19:57:12.777Z,5.90
2023-04-29T19:59:43.729Z,5.45
2023-04-29T20:02:14.441Z,5.28
2023-04-29T20:04:45.078Z,5.60
2023-04-29T20:07:17.226Z,5.70
2023-04-29T20:09:48.306Z,5.30
2023-04-29T20:12:19.014Z,5.35
2023-04-29T20:14:53.481Z,5.00
2023-04-29T20:17:24.126Z,5.35
2023-04-29T20:19:54.990Z,5.17
2023-04-29T20:22:25.777Z,5.85
2023-04-29T20:24:56.634Z,5.60
2023-04-29T20:27:29.169Z,5.83
2023-04-29T20:30:03.231Z,5.40
2023-04-29T20:32:37.775Z,5.65
2023-04-29T20:35:09.336Z,6.05
2023-04-29T20:37:39.748Z,6.00
2023-04-29T20:40:11.701Z,5.78
2023-04-29T20:42:43.359Z,6.15
2023-04-29T20:45:15.420Z,6.00
2023-04-29T20:47:46.673Z,6.70
2023-04-29T20:50:18.647Z,6.22
2023-04-29T20:52:50.186Z,5.78
2023-04-29T20:55:24.066Z,6.28
2023-04-29T20:57:56.189Z,6.55
2023-04-29T21:00:26.658Z,6.00
2023-04-29T21:02:58.461Z,6.25
2023-04-29T21:05:29.975Z,5.97
2023-04-29T21:08:00.633Z,6.20
2023-04-29T21:10:31.472Z,6.03
2023-04-29T21:13:02.104Z,6.40
2023-04-29T21:15:32.806Z,6.08
2023-04-29T21:18:06.265Z,6.72
2023-04-29T21:20:39.358Z,5.87
2023-04-29T21:23:10.056Z,6.08
2023-04-29T21:25:40.722Z,6.20
2023-04-29T21:28:11.445Z,5.72
2023-04-29T21:30:42.464Z,5.72
2023-04-29T21:33:12.989Z,6.23
2023-04-29T21:35:43.953Z,6.47
2023-04-29T21:38:14.762Z,6.15
2023-04-29T21:40:48.721Z,6.15
2023-04-29T21:43:20.359Z,6.55
2023-04-29T21:45:50.901Z,6.00
2023-04-29T21:48:25.254Z,6.65
2023-04-29T21:50:56.145Z,6.58
2023-04-29T21:53:26.656Z,6.47
2023-04-29T21:55:57.255Z,6.28
2023-04-29T21:58:28.630Z,6.62
2023-04-29T22:01:00.920Z,6.20
2023-04-29T22:03:32.043Z,6.40
2023-04-29T22:06:03.882Z,6.30
2023-04-29T22:08:35.001Z,5.90
2023-04-29T22:11:11.753Z,5.90
2023-04-29T22:13:44.395Z,5.47
2023-04-29T22:16:15.015Z,5.87
2023-04-29T22:18:45.907Z,5.50
2023-04-29T22:21:16.801Z,5.57
2023-04-29T22:23:49.115Z,5.53
2023-04-29T22:26:19.681Z,6.00
2023-04-29T22:28:53.286Z,5.90
2023-04-29T22:31:22.926Z,5.33
2023-04-29T22:33:53.557Z,5.20
2023-04-29T22:36:24.880Z,4.55
2023-04-29T22:38:57.126Z,4.17
2023-04-29T22:41:29.836Z,4.60
2023-04-29T22:44:01.884Z,4.47
2023-04-29T22:46:34.626Z,4.95
2023-04-29T22:49:06.640Z,4.15
2023-04-29T22:51:37.607Z,4.27
2023-04-29T22:54:08.833Z,4.00
2023-04-29T22:56:40.592Z,4.13
2023-04-29T22:59:11.235Z,4.00
2023-04-29T23:01:41.826Z,3.87
2023-04-29T23:04:12.415Z,3.58
2023-04-29T23:06:43.273Z,3.08
2023-04-29T23:09:14.078Z,3.50
2023-04-29T23:11:45.055Z,3.17
2023-04-29T23:14:16.276Z,2.55
2023-04-29T23:16:49.841Z,2.50
2023-04-29T23:19:20.313Z,2.60
2023-04-29T23:21:51.048Z,2.60
2023-04-29T23:24:23.053Z,2.83
2023-04-29T23:26:53.676Z,2.50
2023-04-29T23:29:25.314Z,2.40
2023-04-29T23:31:58.020Z,2.95
2023-04-29T23:34:28.924Z,2.52
2023-04-29T23:37:01.465Z,2.50
2023-04-29T23:39:32.460Z,2.40
2023-04-29T23:42:03.129Z,2.80
2023-04-29T23:44:33.748Z,2.47
2023-04-29T23:47:04.474Z,2.40
2023-04-29T23:49:36.294Z,2.80
2023-04-29T23:52:08.727Z,2.33
2023-04-29T23:54:41.859Z,2.63
2023-04-29T23:57:12.479Z,2.37
2023-04-29T23:59:43.288Z,2.05
